Time;durP1;ratioP1;P1;durP2;ratioP2;P2;SDS_P1;SDS_P2;PMS_P1;PMS_P2;Temp;Humidity;BMP_temperature;BMP_pressure;BME280_temperature;BME280_humidity;BME280_pressure;Samples;Min_cycle;Max_cycle;Signal;HPM_P1;HPM_P2
2024/03/02 00:00:21;;;;;;;28.40;25.27;;;6.40;99.90;;;;;;4952137;28;20133;-74
2024/03/02 00:02:49;;;;;;;30.63;25.90;;;6.30;99.90;;;;;;4952355;28;20397;-73
2024/03/02 00:05:19;;;;;;;34.92;24.40;;;6.20;99.90;;;;;;4979096;28;20039;-75
2024/03/02 00:07:54;;;;;;;28.30;22.90;;;6.20;99.90;;;;;;4952030;28;20043;-74
2024/03/02 00:10:39;;;;;;;29.23;24.77;;;6.20;99.90;;;;;;4953923;28;20658;-75
2024/03/02 00:13:08;;;;;;;26.13;22.23;;;6.00;99.90;;;;;;4952734;28;20046;-74
2024/03/02 00:15:52;;;;;;;28.25;23.08;;;6.00;99.90;;;;;;4955916;28;20047;-75
2024/03/02 00:18:34;;;;;;;27.38;23.40;;;6.00;99.90;;;;;;4961516;28;20047;-74
2024/03/02 00:21:02;;;;;;;34.10;24.17;;;6.00;99.90;;;;;;4951440;28;20543;-74
2024/03/02 00:23:34;;;;;;;32.92;25.85;;;5.90;99.90;;;;;;4943835;28;20209;-73
2024/03/02 00:26:02;;;;;;;29.40;24.30;;;5.80;99.90;;;;;;4943099;28;20051;-75
2024/03/02 00:28:36;;;;;;;29.17;25.02;;;5.80;99.90;;;;;;4952441;28;20039;-75
2024/03/02 00:31:13;;;;;;;27.02;24.13;;;5.80;99.90;;;;;;4932072;28;20047;-76
2024/03/02 00:33:49;;;;;;;33.35;25.83;;;5.80;99.90;;;;;;4947259;28;20073;-74
2024/03/02 00:36:22;;;;;;;28.52;23.85;;;5.80;99.90;;;;;;4950882;28;20042;-73
2024/03/02 00:38:51;;;;;;;26.77;23.25;;;5.80;99.90;;;;;;4945421;28;20058;-74
2024/03/02 00:41:27;;;;;;;31.90;24.58;;;5.80;99.90;;;;;;4963020;28;20051;-75
2024/03/02 00:43:57;;;;;;;26.40;22.20;;;5.80;99.90;;;;;;4947698;28;20053;-75
2024/03/02 00:46:24;;;;;;;27.15;23.17;;;5.80;99.90;;;;;;4971184;28;20053;-74
2024/03/02 00:48:54;;;;;;;27.80;23.52;;;5.80;99.90;;;;;;4973196;28;20050;-74
2024/03/02 00:51:23;;;;;;;28.73;23.42;;;5.80;99.90;;;;;;4962969;28;20057;-76
2024/03/02 00:53:52;;;;;;;28.45;23.02;;;5.80;99.90;;;;;;4952796;28;20089;-73
2024/03/02 00:56:19;;;;;;;29.05;22.80;;;5.80;99.90;;;;;;4950554;28;20156;-75
2024/03/02 00:58:46;;;;;;;33.40;23.70;;;5.70;99.90;;;;;;4964095;28;20128;-76
2024/03/02 01:01:13;;;;;;;27.17;22.90;;;5.70;99.90;;;;;;4965861;28;20045;-74
2024/03/02 01:03:41;;;;;;;32.67;24.35;;;5.80;99.90;;;;;;4965298;28;20042;-74
2024/03/02 01:06:08;;;;;;;32.13;24.52;;;5.70;99.90;;;;;;4948152;28;21009;-75
2024/03/02 01:08:35;;;;;;;35.42;23.88;;;5.80;99.90;;;;;;4981981;28;20693;-72
2024/03/02 01:11:03;;;;;;;28.70;23.17;;;5.80;99.90;;;;;;4957958;28;20680;-74
2024/03/02 01:13:30;;;;;;;27.88;22.08;;;5.80;99.90;;;;;;4949631;28;20046;-73
2024/03/02 01:15:58;;;;;;;31.48;23.17;;;5.80;99.90;;;;;;4975874;28;20050;-73
2024/03/02 01:18:25;;;;;;;27.80;21.95;;;5.90;99.90;;;;;;4971390;28;20139;-75
2024/03/02 01:20:52;;;;;;;28.17;22.05;;;5.80;99.90;;;;;;4966630;28;20058;-72
2024/03/02 01:23:19;;;;;;;29.60;23.65;;;5.80;99.90;;;;;;4967670;28;20062;-75
2024/03/02 01:25:47;;;;;;;31.08;23.27;;;5.80;99.90;;;;;;4966148;28;20050;-74
2024/03/02 01:28:14;;;;;;;26.08;22.13;;;5.80;99.90;;;;;;4965737;28;20078;-75
2024/03/02 01:30:42;;;;;;;29.45;22.80;;;5.80;99.90;;;;;;4956755;28;20150;-74
2024/03/02 01:33:09;;;;;;;29.92;23.45;;;5.80;99.90;;;;;;4943869;28;20055;-75
2024/03/02 01:35:37;;;;;;;27.65;22.00;;;5.80;99.90;;;;;;4944311;28;20109;-77
2024/03/02 01:38:05;;;;;;;28.67;22.52;;;5.80;99.90;;;;;;4938192;28;20039;-74
2024/03/02 01:40:37;;;;;;;30.45;22.80;;;5.80;99.90;;;;;;4941994;28;20046;-72
2024/03/02 01:43:05;;;;;;;26.92;21.58;;;5.80;99.90;;;;;;4944568;28;20050;-76
2024/03/02 01:45:32;;;;;;;27.15;21.10;;;5.70;99.90;;;;;;4960218;28;20470;-76
2024/03/02 01:47:59;;;;;;;28.58;22.90;;;5.80;99.90;;;;;;4957754;28;20066;-75
2024/03/02 01:50:31;;;;;;;31.17;24.17;;;5.70;99.90;;;;;;4945028;28;20547;-74
2024/03/02 01:52:59;;;;;;;29.27;22.42;;;5.70;99.90;;;;;;4966201;28;20502;-74
2024/03/02 01:55:29;;;;;;;31.67;22.88;;;5.70;99.90;;;;;;4977238;28;20054;-75
2024/03/02 01:57:56;;;;;;;31.90;22.83;;;5.80;99.90;;;;;;4966439;28;20057;-75
2024/03/02 02:00:26;;;;;;;30.35;22.02;;;5.80;99.90;;;;;;4977124;28;20046;-76
2024/03/02 02:02:54;;;;;;;33.20;24.38;;;5.80;99.90;;;;;;4976370;28;20059;-74
2024/03/02 02:05:21;;;;;;;31.25;24.40;;;5.80;99.90;;;;;;4973226;28;20599;-74
2024/03/02 02:07:48;;;;;;;34.47;23.95;;;5.80;99.90;;;;;;4959822;28;20047;-73
2024/03/02 02:10:15;;;;;;;35.10;24.92;;;5.80;99.90;;;;;;4956208;28;20056;-75
2024/03/02 02:12:42;;;;;;;33.10;24.63;;;5.80;99.90;;;;;;4965839;28;20058;-74
2024/03/02 02:15:29;;;;;;;33.58;24.27;;;5.70;99.90;;;;;;4956032;28;20507;-75
2024/03/02 02:17:57;;;;;;;30.48;23.08;;;5.70;99.90;;;;;;4960740;28;20116;-75
2024/03/02 02:20:25;;;;;;;34.42;24.67;;;5.80;99.90;;;;;;4972091;28;20878;-74
2024/03/02 02:22:59;;;;;;;33.17;24.38;;;5.70;99.90;;;;;;4964584;28;20066;-73
2024/03/02 02:25:27;;;;;;;35.70;24.02;;;5.70;99.90;;;;;;4960929;28;20156;-74
2024/03/02 02:27:55;;;;;;;29.48;20.23;;;5.70;99.90;;;;;;4973702;28;20049;-74
2024/03/02 02:30:24;;;;;;;33.40;23.45;;;5.70;99.90;;;;;;4957277;28;20039;-75
2024/03/02 02:32:52;;;;;;;38.67;24.02;;;5.70;99.90;;;;;;4972962;28;20101;-76
2024/03/02 02:35:19;;;;;;;33.70;25.42;;;5.80;99.90;;;;;;4960455;28;20120;-74
2024/03/02 02:37:47;;;;;;;38.92;25.73;;;5.70;99.90;;;;;;4972127;28;20050;-75
2024/03/02 02:40:14;;;;;;;35.10;24.88;;;5.80;99.90;;;;;;4956944;28;20142;-75
2024/03/02 02:42:41;;;;;;;33.70;21.92;;;5.70;99.90;;;;;;4980635;28;20058;-76
2024/03/02 02:45:08;;;;;;;34.10;24.23;;;5.70;99.90;;;;;;4967479;28;20089;-73
2024/03/02 02:47:35;;;;;;;35.67;25.42;;;5.70;99.90;;;;;;4929983;28;20043;-75
2024/03/02 02:50:04;;;;;;;36.30;25.92;;;5.70;99.90;;;;;;4941194;28;20054;-74
2024/03/02 02:52:33;;;;;;;37.03;25.20;;;5.70;99.90;;;;;;4940132;28;20137;-74
2024/03/02 02:55:02;;;;;;;41.70;26.20;;;5.70;99.90;;;;;;4975087;28;20078;-75
2024/03/02 02:57:31;;;;;;;39.20;25.77;;;5.70;99.90;;;;;;4963319;28;20530;-74
2024/03/02 02:59:58;;;;;;;36.72;24.98;;;5.60;99.90;;;;;;4961744;28;20137;-75
2024/03/02 03:02:28;;;;;;;35.22;24.92;;;5.60;99.90;;;;;;4957831;28;20662;-73
2024/03/02 03:04:57;;;;;;;37.92;25.58;;;5.50;99.90;;;;;;4950757;28;20046;-72
2024/03/02 03:07:23;;;;;;;36.17;24.83;;;5.40;99.90;;;;;;4974417;28;20165;-74
2024/03/02 03:09:50;;;;;;;37.63;25.02;;;5.40;99.90;;;;;;4977213;28;20054;-74
2024/03/02 03:12:17;;;;;;;40.33;26.50;;;5.40;99.90;;;;;;4942031;28;20786;-73
2024/03/02 03:14:44;;;;;;;40.58;26.67;;;5.50;99.90;;;;;;4951374;28;20066;-75
2024/03/02 03:17:11;;;;;;;39.33;26.50;;;5.50;99.90;;;;;;4959960;28;20054;-73
2024/03/02 03:19:38;;;;;;;43.10;25.75;;;5.50;99.90;;;;;;4961831;28;20050;-75
2024/03/02 03:22:05;;;;;;;41.63;26.05;;;5.50;99.90;;;;;;4955003;28;20233;-74
2024/03/02 03:24:32;;;;;;;39.53;27.25;;;5.60;99.90;;;;;;4956755;28;20042;-74
2024/03/02 03:26:59;;;;;;;40.72;27.48;;;5.60;99.90;;;;;;4960884;28;20050;-72
2024/03/02 03:29:26;;;;;;;39.08;27.23;;;5.60;99.90;;;;;;4971395;28;20050;-76
2024/03/02 03:31:53;;;;;;;41.22;28.15;;;5.60;99.90;;;;;;4960807;28;20050;-73
2024/03/02 03:34:20;;;;;;;43.85;26.90;;;5.60;99.90;;;;;;4946914;28;20535;-75
2024/03/02 03:36:47;;;;;;;44.55;28.30;;;5.60;99.90;;;;;;4978029;28;20065;-72
2024/03/02 03:39:14;;;;;;;42.95;27.17;;;5.60;99.90;;;;;;4951802;28;20069;-74
2024/03/02 03:41:41;;;;;;;42.72;25.48;;;5.50;99.90;;;;;;4967727;28;20073;-74
2024/03/02 03:44:08;;;;;;;41.00;26.63;;;5.50;99.90;;;;;;4958387;28;20100;-73
2024/03/02 03:46:35;;;;;;;44.03;29.13;;;5.50;99.90;;;;;;4947386;28;20600;-75
2024/03/02 03:49:03;;;;;;;45.50;27.58;;;5.50;99.90;;;;;;4960588;28;20058;-72
2024/03/02 03:51:30;;;;;;;40.88;26.90;;;5.50;99.90;;;;;;4964335;28;20055;-73
2024/03/02 03:53:57;;;;;;;41.88;27.02;;;5.50;99.90;;;;;;4959747;28;20058;-74
2024/03/02 03:56:24;;;;;;;43.08;27.90;;;5.50;99.90;;;;;;4961469;28;20462;-74
2024/03/02 03:58:51;;;;;;;40.72;26.95;;;5.50;99.90;;;;;;4962366;28;20077;-74
2024/03/02 04:01:18;;;;;;;43.20;27.42;;;5.50;99.90;;;;;;4966191;28;20047;-72
2024/03/02 04:03:45;;;;;;;44.50;26.65;;;5.50;99.90;;;;;;4967103;28;20065;-74
2024/03/02 04:06:13;;;;;;;39.92;26.83;;;5.50;99.90;;;;;;4964085;28;20443;-73
2024/03/02 04:08:41;;;;;;;44.22;27.10;;;5.50;99.90;;;;;;4962640;28;20057;-74
2024/03/02 04:11:08;;;;;;;40.63;28.00;;;5.60;99.90;;;;;;4945541;28;20058;-73
2024/03/02 04:13:35;;;;;;;37.58;26.67;;;5.50;99.90;;;;;;4944879;28;20422;-74
2024/03/02 04:16:03;;;;;;;40.35;27.00;;;5.50;99.90;;;;;;4955812;28;20249;-74
2024/03/02 04:18:32;;;;;;;41.67;26.67;;;5.50;99.90;;;;;;4962640;28;20061;-73
2024/03/02 04:20:59;;;;;;;39.15;26.45;;;5.40;99.90;;;;;;4951017;28;20046;-71
2024/03/02 04:23:27;;;;;;;41.95;26.52;;;5.40;99.90;;;;;;4972119;28;20130;-72
2024/03/02 04:25:54;;;;;;;43.13;24.40;;;5.40;99.90;;;;;;4959346;28;20054;-74
2024/03/02 04:28:21;;;;;;;45.72;27.13;;;5.40;99.90;;;;;;4945163;28;20058;-75
2024/03/02 04:30:48;;;;;;;44.60;28.20;;;5.50;99.90;;;;;;4952026;28;20054;-74
2024/03/02 04:33:15;;;;;;;44.65;27.05;;;5.50;99.90;;;;;;4953986;28;20054;-73
2024/03/02 04:35:42;;;;;;;44.95;28.17;;;5.50;99.90;;;;;;4962811;28;20055;-75
2024/03/02 04:38:08;;;;;;;44.85;28.17;;;5.40;99.90;;;;;;4973468;28;20058;-73
2024/03/02 04:40:35;;;;;;;48.65;27.75;;;5.40;99.90;;;;;;4963445;28;20455;-74
2024/03/02 04:43:03;;;;;;;46.60;28.42;;;5.40;99.90;;;;;;4979640;28;20050;-74
2024/03/02 04:45:30;;;;;;;52.63;28.15;;;5.40;99.90;;;;;;4977660;28;20046;-75
2024/03/02 04:47:57;;;;;;;51.13;29.77;;;5.40;99.90;;;;;;4967636;28;20138;-74
2024/03/02 04:50:23;;;;;;;50.80;29.08;;;5.40;99.90;;;;;;4977021;28;20058;-74
2024/03/02 04:52:51;;;;;;;50.95;29.77;;;5.40;99.90;;;;;;4947311;28;20165;-73
2024/03/02 04:57:56;;;;;;;52.05;27.73;;;5.40;99.90;;;;;;4961910;28;20061;-73
2024/03/02 05:00:23;;;;;;;53.28;30.73;;;5.40;99.90;;;;;;4932386;28;20043;-72
2024/03/02 05:02:51;;;;;;;58.45;30.63;;;5.40;99.90;;;;;;4946981;28;20681;-73
2024/03/02 05:05:18;;;;;;;49.90;28.92;;;5.50;99.90;;;;;;4942931;28;20062;-74
2024/03/02 05:07:45;;;;;;;51.50;28.75;;;5.50;99.90;;;;;;4948804;28;20054;-73
2024/03/02 05:10:12;;;;;;;55.25;31.48;;;5.40;99.90;;;;;;4943592;28;20064;-72
2024/03/02 05:15:14;;;;;;;59.95;32.10;;;5.40;99.90;;;;;;4946911;28;20102;-75
2024/03/02 05:17:45;;;;;;;57.10;30.48;;;5.40;99.90;;;;;;4945574;28;20054;-74
2024/03/02 05:20:12;;;;;;;57.72;28.85;;;5.40;99.90;;;;;;4960891;28;20057;-73
2024/03/02 05:22:39;;;;;;;57.33;32.50;;;5.40;99.90;;;;;;4948546;28;20141;-72
2024/03/02 05:25:07;;;;;;;55.08;29.55;;;5.40;99.90;;;;;;4960223;28;20065;-72
2024/03/02 05:27:34;;;;;;;59.20;32.05;;;5.50;99.90;;;;;;4962621;28;20038;-74
2024/03/02 05:30:02;;;;;;;56.35;29.33;;;5.50;99.90;;;;;;4961228;28;20046;-75
2024/03/02 05:32:29;;;;;;;46.03;25.60;;;5.50;99.90;;;;;;4951202;28;20109;-75
2024/03/02 05:34:55;;;;;;;63.83;31.77;;;5.50;99.90;;;;;;4952808;28;20117;-73
2024/03/02 05:37:22;;;;;;;65.13;32.97;;;5.40;99.90;;;;;;4960499;28;20441;-73
2024/03/02 05:39:49;;;;;;;66.50;36.38;;;5.40;99.90;;;;;;4961569;28;20054;-74
2024/03/02 05:42:19;;;;;;;74.07;35.72;;;5.40;99.90;;;;;;4946643;28;20039;-73
2024/03/02 05:44:46;;;;;;;67.38;36.40;;;5.40;99.90;;;;;;4964103;28;20615;-75
2024/03/02 05:47:13;;;;;;;71.70;35.28;;;5.40;99.90;;;;;;4977254;28;20089;-73
2024/03/02 05:49:39;;;;;;;67.25;34.58;;;5.40;99.90;;;;;;4979822;28;20043;-74
2024/03/02 05:52:06;;;;;;;69.05;36.45;;;5.40;99.90;;;;;;4961950;28;20123;-73
2024/03/02 05:54:33;;;;;;;64.80;34.45;;;5.40;99.90;;;;;;4943358;28;20165;-73
2024/03/02 05:57:16;;;;;;;68.25;36.30;;;5.30;99.90;;;;;;4927357;28;20074;-71
2024/03/02 05:59:43;;;;;;;66.97;33.65;;;5.30;99.90;;;;;;4945781;28;20486;-73
2024/03/02 06:02:10;;;;;;;67.80;36.00;;;5.30;99.90;;;;;;4944636;28;20686;-73
2024/03/02 06:04:37;;;;;;;75.18;38.33;;;5.20;99.90;;;;;;4928093;28;20043;-74
2024/03/02 06:07:04;;;;;;;71.68;37.08;;;5.20;99.90;;;;;;4925143;28;20101;-73
2024/03/02 06:09:31;;;;;;;83.25;40.30;;;5.20;99.90;;;;;;4959332;28;20092;-73
2024/03/02 06:11:58;;;;;;;83.00;41.00;;;5.20;99.90;;;;;;4931340;28;20054;-73
2024/03/02 06:14:25;;;;;;;77.78;40.33;;;5.20;99.90;;;;;;4926159;28;20062;-73
2024/03/02 06:16:51;;;;;;;78.97;39.08;;;5.20;99.90;;;;;;4969653;28;20050;-72
2024/03/02 06:19:18;;;;;;;75.50;38.22;;;5.10;99.90;;;;;;4946584;28;20066;-73
2024/03/02 06:21:45;;;;;;;77.57;39.20;;;5.10;99.90;;;;;;4962549;28;20821;-72
2024/03/02 06:24:12;;;;;;;77.20;39.47;;;5.00;99.90;;;;;;4941285;28;20057;-72
2024/03/02 06:26:39;;;;;;;78.75;39.53;;;5.00;99.90;;;;;;4943477;28;20042;-76
2024/03/02 06:29:07;;;;;;;77.63;39.35;;;5.00;99.90;;;;;;4946664;28;20093;-74
2024/03/02 06:31:35;;;;;;;77.10;41.80;;;5.00;99.90;;;;;;4942279;28;20106;-74
2024/03/02 06:34:03;;;;;;;67.93;34.08;;;5.00;99.90;;;;;;4961156;28;20051;-74
2024/03/02 06:36:30;;;;;;;67.82;35.15;;;5.10;99.90;;;;;;4933086;28;20066;-74
2024/03/02 06:38:57;;;;;;;70.60;37.42;;;5.20;99.90;;;;;;4958696;28;20042;-74
2024/03/02 06:41:24;;;;;;;77.85;38.13;;;5.20;99.90;;;;;;4953099;28;20573;-75
2024/03/02 06:43:59;;;;;;;66.63;36.33;;;5.20;99.90;;;;;;4930877;28;20079;-74
2024/03/02 06:46:26;;;;;;;66.85;36.78;;;5.20;99.90;;;;;;4951987;28;20035;-73
2024/03/02 06:48:53;;;;;;;62.88;34.92;;;5.30;99.90;;;;;;4963232;23;20058;-75
2024/03/02 06:51:20;;;;;;;62.08;33.22;;;5.30;99.90;;;;;;4957102;28;20115;-74
2024/03/02 06:53:47;;;;;;;67.13;36.17;;;5.30;99.90;;;;;;4960873;28;20247;-74
2024/03/02 06:56:14;;;;;;;64.07;33.45;;;5.30;99.90;;;;;;4950925;28;20039;-74
2024/03/02 06:58:42;;;;;;;57.90;28.90;;;5.30;99.90;;;;;;4957957;28;20106;-73
2024/03/02 07:01:11;;;;;;;62.72;33.88;;;5.30;99.90;;;;;;4946650;28;20265;-78
2024/03/02 07:03:39;;;;;;;61.28;34.78;;;5.30;99.90;;;;;;4949461;28;20066;-78
2024/03/02 07:06:06;;;;;;;60.85;34.40;;;5.40;99.90;;;;;;4960292;28;20071;-79
2024/03/02 07:08:33;;;;;;;61.50;32.53;;;5.50;99.90;;;;;;4936192;28;20072;-78
2024/03/02 07:11:01;;;;;;;57.05;32.83;;;5.50;99.90;;;;;;4959313;28;20289;-77
2024/03/02 07:13:28;;;;;;;61.72;35.10;;;5.60;99.90;;;;;;4946095;28;20035;-78
2024/03/02 07:18:28;;;;;;;54.38;31.10;;;5.60;99.90;;;;;;4966227;28;20054;-78
2024/03/02 07:20:58;;;;;;;52.17;29.67;;;5.70;99.90;;;;;;4960822;28;20039;-79
2024/03/02 07:23:27;;;;;;;53.65;30.48;;;5.70;99.90;;;;;;4947756;28;20051;-78
2024/03/02 07:25:56;;;;;;;63.08;34.45;;;5.70;99.90;;;;;;4947504;28;20074;-78
2024/03/02 07:28:27;;;;;;;56.80;34.25;;;5.80;99.90;;;;;;4945314;28;20047;-78
2024/03/02 07:31:01;;;;;;;50.83;30.13;;;5.70;99.90;;;;;;4962907;28;20085;-78
2024/03/02 07:33:29;;;;;;;55.58;30.95;;;5.80;99.90;;;;;;4946293;28;20054;-78
2024/03/02 07:35:59;;;;;;;57.03;32.63;;;5.70;99.90;;;;;;4930103;28;20552;-75
2024/03/02 07:38:29;;;;;;;48.75;27.75;;;5.80;99.90;;;;;;4921010;28;20047;-73
2024/03/02 07:40:56;;;;;;;52.78;30.85;;;5.90;99.90;;;;;;4934161;28;20043;-76
2024/03/02 07:43:23;;;;;;;56.60;33.38;;;5.90;99.90;;;;;;4950418;28;20624;-79
2024/03/02 07:45:50;;;;;;;48.30;30.50;;;6.00;99.90;;;;;;4936175;28;20047;-78
2024/03/02 07:48:17;;;;;;;47.58;28.48;;;5.90;99.90;;;;;;4949365;28;20078;-76
2024/03/02 07:50:44;;;;;;;56.88;32.72;;;6.00;99.90;;;;;;4950806;28;20082;-75
2024/03/02 07:53:11;;;;;;;52.00;29.73;;;6.00;99.90;;;;;;4954264;28;20133;-76
2024/03/02 07:55:38;;;;;;;49.92;27.83;;;6.00;99.90;;;;;;4936537;28;20047;-75
2024/03/02 07:58:05;;;;;;;47.22;28.27;;;6.00;99.90;;;;;;4951557;28;20106;-75
2024/03/02 08:00:32;;;;;;;58.15;33.63;;;6.10;99.90;;;;;;4956830;28;20079;-75
2024/03/02 08:03:01;;;;;;;49.60;30.90;;;6.20;99.90;;;;;;4965464;28;20039;-76
2024/03/02 08:05:28;;;;;;;53.72;31.45;;;6.20;99.90;;;;;;4958873;28;20062;-75
2024/03/02 08:07:55;;;;;;;50.03;33.08;;;6.20;99.90;;;;;;4946981;28;20864;-76
2024/03/02 08:10:21;;;;;;;46.00;29.65;;;6.30;99.90;;;;;;4951127;28;20052;-76
2024/03/02 08:12:48;;;;;;;42.55;29.08;;;6.30;99.90;;;;;;4943832;28;20054;-77
2024/03/02 08:15:15;;;;;;;51.67;30.80;;;6.30;99.90;;;;;;4945755;28;20149;-77
2024/03/02 08:17:45;;;;;;;46.17;29.17;;;6.30;99.90;;;;;;4943290;28;20083;-76
2024/03/02 08:20:12;;;;;;;46.88;30.30;;;6.30;99.90;;;;;;4941017;28;20060;-75
2024/03/02 08:22:40;;;;;;;49.33;33.42;;;6.30;99.90;;;;;;4959261;28;20222;-76
2024/03/02 08:25:07;;;;;;;49.30;32.03;;;6.30;99.90;;;;;;4961752;28;20601;-75
2024/03/02 08:27:35;;;;;;;49.08;32.63;;;6.40;99.90;;;;;;4946626;28;20050;-75
2024/03/02 08:30:06;;;;;;;52.08;33.85;;;6.40;99.90;;;;;;4953614;28;20051;-75
2024/03/02 08:32:33;;;;;;;46.53;31.98;;;6.40;99.90;;;;;;4949078;28;20125;-75
2024/03/02 08:35:00;;;;;;;46.17;32.28;;;6.50;99.90;;;;;;4960254;28;20050;-75
2024/03/02 08:37:28;;;;;;;56.38;33.85;;;6.50;99.90;;;;;;4958581;28;20050;-74
2024/03/02 08:39:55;;;;;;;42.78;30.55;;;6.50;99.90;;;;;;4924507;28;20040;-74
2024/03/02 08:42:22;;;;;;;49.78;31.75;;;6.60;99.90;;;;;;4936182;28;20434;-75
2024/03/02 08:44:50;;;;;;;47.08;31.50;;;6.60;99.90;;;;;;4940804;28;20641;-76
2024/03/02 08:47:17;;;;;;;46.15;32.95;;;6.60;99.90;;;;;;4918418;28;20042;-75
2024/03/02 08:49:43;;;;;;;41.63;31.25;;;6.80;99.90;;;;;;4952845;28;20039;-77
2024/03/02 08:52:10;;;;;;;39.33;31.75;;;6.90;99.90;;;;;;4924720;28;20057;-77
2024/03/02 08:54:37;;;;;;;41.03;30.77;;;7.00;99.90;;;;;;4955437;28;20053;-76
2024/03/02 08:57:05;;;;;;;36.22;30.70;;;7.10;99.90;;;;;;4941418;28;20058;-75
2024/03/02 08:59:32;;;;;;;33.33;29.70;;;7.30;99.90;;;;;;4961437;28;20078;-78
2024/03/02 09:01:59;;;;;;;34.88;30.70;;;7.40;99.90;;;;;;4944459;28;20102;-79
2024/03/02 09:04:28;;;;;;;33.13;29.05;;;7.70;99.90;;;;;;4942627;28;20074;-77
2024/03/02 09:07:00;;;;;;;31.33;28.23;;;7.90;99.90;;;;;;4955943;28;20042;-77
2024/03/02 09:09:28;;;;;;;34.17;30.80;;;8.30;99.90;;;;;;4974808;28;20034;-76
2024/03/02 09:11:57;;;;;;;38.58;32.58;;;8.40;99.90;;;;;;4958251;28;20057;-77
2024/03/02 09:14:24;;;;;;;40.38;36.03;;;8.70;99.90;;;;;;4939502;28;20058;-79
2024/03/02 09:16:51;;;;;;;36.88;33.22;;;9.00;99.90;;;;;;4922691;28;20113;-78
2024/03/02 09:19:18;;;;;;;39.22;35.60;;;9.30;99.90;;;;;;4935280;28;20054;-80
2024/03/02 09:21:45;;;;;;;41.55;37.92;;;9.50;99.90;;;;;;4953051;28;20050;-80
2024/03/02 09:24:12;;;;;;;45.60;41.83;;;9.80;99.90;;;;;;4941831;28;20078;-80
2024/03/02 09:26:44;;;;;;;42.72;38.95;;;9.80;99.90;;;;;;4935925;28;20522;-80
2024/03/02 09:29:11;;;;;;;43.90;40.10;;;9.90;99.90;;;;;;4915506;28;20042;-81
2024/03/02 09:31:41;;;;;;;41.20;37.75;;;9.80;99.90;;;;;;4925567;28;20053;-80
2024/03/02 09:34:09;;;;;;;34.55;30.95;;;9.90;99.90;;;;;;4945439;28;20067;-80
2024/03/02 10:14:45;;;;;;;38.22;35.38;;;10.80;99.90;;;;;;5020306;28;20413;-68
2024/03/02 10:17:13;;;;;;;37.53;34.75;;;11.50;99.90;;;;;;4997541;28;20231;-70
2024/03/02 10:19:41;;;;;;;38.58;35.60;;;11.40;99.90;;;;;;4971716;28;20277;-70
2024/03/02 10:22:09;;;;;;;39.15;36.42;;;11.10;99.90;;;;;;4973729;28;20518;-71
2024/03/02 10:24:39;;;;;;;38.78;35.90;;;11.10;99.90;;;;;;4981857;28;20045;-70
2024/03/02 10:27:23;;;;;;;38.17;35.28;;;11.20;99.90;;;;;;4985286;28;20042;-69
2024/03/02 10:29:50;;;;;;;39.73;36.73;;;11.20;99.90;;;;;;4987146;28;20052;-69
2024/03/02 10:32:17;;;;;;;40.35;37.42;;;11.30;99.90;;;;;;4983326;28;20422;-68
2024/03/02 10:34:46;;;;;;;38.20;35.00;;;11.50;99.90;;;;;;4986249;28;20085;-71
2024/03/02 10:37:13;;;;;;;43.65;40.35;;;11.80;99.90;;;;;;4986242;28;20049;-69
2024/03/02 10:39:40;;;;;;;39.65;36.60;;;11.80;99.90;;;;;;4987245;28;20120;-69
2024/03/02 10:42:08;;;;;;;35.80;32.90;;;11.90;99.90;;;;;;4987289;28;20148;-70
2024/03/02 10:44:36;;;;;;;36.13;33.42;;;11.80;99.90;;;;;;4992061;28;20057;-70
2024/03/02 10:47:04;;;;;;;41.83;38.92;;;11.80;99.90;;;;;;4982174;28;20129;-70
2024/03/02 10:49:32;;;;;;;43.67;40.75;;;11.90;99.90;;;;;;4982766;28;20724;-71
2024/03/02 10:52:00;;;;;;;43.47;40.53;;;11.90;99.90;;;;;;4990672;28;20042;-69
2024/03/02 10:54:35;;;;;;;43.75;40.78;;;12.00;99.90;;;;;;5001530;28;20509;-71
2024/03/02 10:57:05;;;;;;;46.87;43.57;;;12.10;99.90;;;;;;4988679;28;20099;-68
2024/03/02 10:59:39;;;;;;;51.55;47.78;;;12.10;99.90;;;;;;4980944;28;20385;-71
2024/03/02 11:02:11;;;;;;;48.25;44.78;;;12.40;99.90;;;;;;4977268;28;20529;-71
2024/03/02 11:04:40;;;;;;;49.65;46.10;;;12.40;99.90;;;;;;4967490;28;20050;-70
2024/03/02 11:07:12;;;;;;;45.85;42.75;;;12.40;99.90;;;;;;4980628;28;20058;-70
2024/03/02 11:09:55;;;;;;;45.40;42.30;;;12.60;99.90;;;;;;4981806;28;20400;-69
2024/03/02 11:12:29;;;;;;;42.95;40.15;;;12.70;99.90;;;;;;4981946;28;20042;-70
2024/03/02 11:14:56;;;;;;;44.85;42.05;;;12.60;99.90;;;;;;4972344;28;20089;-69
2024/03/02 11:17:24;;;;;;;44.28;41.28;;;12.50;99.90;;;;;;4973320;28;20053;-70
2024/03/02 11:19:52;;;;;;;44.70;41.80;;;12.40;99.90;;;;;;4976168;28;20254;-70
2024/03/02 11:22:20;;;;;;;46.08;42.78;;;12.40;99.90;;;;;;4976403;28;20046;-70
2024/03/02 11:24:49;;;;;;;42.78;39.92;;;12.30;99.90;;;;;;4971494;28;20085;-70
2024/03/02 11:27:45;;;;;;;42.58;39.83;;;12.40;99.90;;;;;;4957381;28;20038;-69
2024/03/02 11:30:31;;;;;;;41.92;39.33;;;12.40;99.90;;;;;;4961864;28;20085;-70
2024/03/02 11:33:08;;;;;;;43.60;40.80;;;12.40;99.90;;;;;;4957785;28;20050;-68
2024/03/02 11:35:42;;;;;;;44.28;41.38;;;12.70;99.90;;;;;;4967125;28;20057;-70
2024/03/02 11:38:10;;;;;;;42.67;39.85;;;12.70;99.90;;;;;;4968419;28;20082;-70
2024/03/02 11:40:40;;;;;;;44.85;41.95;;;12.70;99.90;;;;;;4955940;28;20050;-71
2024/03/02 11:43:10;;;;;;;44.85;41.88;;;12.90;99.90;;;;;;4966052;28;20380;-71
2024/03/02 11:45:41;;;;;;;42.78;39.97;;;13.00;99.90;;;;;;4969606;28;20047;-70
2024/03/02 11:48:12;;;;;;;44.97;42.28;;;12.90;99.90;;;;;;4971061;28;20742;-70
2024/03/02 11:50:48;;;;;;;46.65;43.90;;;12.80;99.90;;;;;;4974419;28;20050;-69
2024/03/02 11:53:18;;;;;;;45.55;42.72;;;12.80;99.90;;;;;;4965272;28;20054;-72
2024/03/02 11:55:46;;;;;;;46.17;43.35;;;12.90;99.90;;;;;;4973221;28;20431;-70
2024/03/02 11:58:20;;;;;;;47.97;45.00;;;12.80;99.90;;;;;;4955051;28;20053;-70
2024/03/02 12:00:50;;;;;;;46.33;43.42;;;12.90;99.90;;;;;;4965403;28;20100;-71
2024/03/02 12:03:17;;;;;;;48.33;45.28;;;13.20;99.90;;;;;;4951118;28;20089;-70
2024/03/02 12:05:49;;;;;;;44.95;42.30;;;13.00;99.90;;;;;;4970612;28;20065;-69
2024/03/02 12:08:17;;;;;;;45.25;42.45;;;13.00;99.90;;;;;;4975045;28;20050;-71
2024/03/02 12:11:00;;;;;;;50.97;47.95;;;13.10;99.90;;;;;;4971085;28;20414;-71
2024/03/02 12:13:29;;;;;;;48.72;45.95;;;13.30;99.90;;;;;;4969684;28;20054;-69
2024/03/02 12:15:57;;;;;;;48.03;45.15;;;13.40;99.90;;;;;;4971658;28;20138;-70
2024/03/02 12:18:25;;;;;;;46.97;44.17;;;13.20;99.90;;;;;;4969326;28;20050;-70
2024/03/02 12:20:52;;;;;;;47.55;44.75;;;13.40;99.90;;;;;;4970099;28;20073;-72
2024/03/02 12:23:20;;;;;;;49.65;46.65;;;13.40;99.90;;;;;;4969073;28;20034;-70
2024/03/02 12:25:47;;;;;;;48.92;46.13;;;13.50;99.90;;;;;;4973054;28;20042;-70
2024/03/02 12:28:14;;;;;;;49.70;46.88;;;13.50;99.90;;;;;;4968389;28;20052;-69
2024/03/02 12:30:42;;;;;;;49.67;46.67;;;13.50;99.90;;;;;;4972625;28;20050;-70
2024/03/02 12:33:11;;;;;;;49.38;46.53;;;13.50;99.90;;;;;;4969658;28;20552;-71
2024/03/02 12:35:39;;;;;;;51.38;48.47;;;13.30;99.90;;;;;;4968443;28;20050;-69
2024/03/02 12:38:06;;;;;;;51.80;48.97;;;13.30;99.90;;;;;;4971225;28;20051;-70
2024/03/02 12:40:33;;;;;;;50.55;47.75;;;13.50;99.90;;;;;;4974726;28;20046;-71
2024/03/02 12:43:01;;;;;;;48.35;45.85;;;13.60;99.90;;;;;;4969366;28;20133;-69
2024/03/02 12:45:28;;;;;;;52.47;49.47;;;13.50;99.90;;;;;;4965395;28;20046;-70
2024/03/02 12:47:55;;;;;;;50.78;48.20;;;13.70;99.90;;;;;;4972803;28;20061;-69
2024/03/02 12:50:23;;;;;;;49.40;47.00;;;13.90;99.90;;;;;;4966219;28;20050;-72
2024/03/02 12:52:53;;;;;;;47.33;45.13;;;14.00;99.90;;;;;;4970247;28;20042;-68
2024/03/02 12:55:22;;;;;;;47.38;45.15;;;13.50;99.90;;;;;;4970561;28;20073;-71
2024/03/02 12:57:51;;;;;;;49.25;46.85;;;13.40;99.90;;;;;;4982438;28;20082;-71
2024/03/02 13:00:20;;;;;;;48.63;46.28;;;13.50;99.90;;;;;;4971893;28;20033;-70
2024/03/02 13:02:48;;;;;;;48.58;46.17;;;13.50;99.90;;;;;;4954467;28;20100;-68
2024/03/02 13:05:15;;;;;;;49.83;47.13;;;13.40;99.90;;;;;;4967489;28;20141;-70
2024/03/02 13:07:44;;;;;;;49.22;46.63;;;13.60;99.90;;;;;;4973543;28;20053;-71
2024/03/02 13:10:12;;;;;;;48.67;46.15;;;13.60;99.90;;;;;;4968173;28;20042;-72
2024/03/02 13:12:40;;;;;;;49.42;46.80;;;13.80;99.90;;;;;;4967691;28;20607;-71
2024/03/02 13:15:08;;;;;;;51.83;48.83;;;13.90;99.90;;;;;;4963948;28;20046;-69
2024/03/02 13:17:36;;;;;;;48.55;45.95;;;13.80;99.90;;;;;;4972376;28;20062;-70
2024/03/02 13:20:10;;;;;;;49.90;47.20;;;13.80;99.90;;;;;;4969651;28;20926;-71
2024/03/02 13:22:38;;;;;;;49.63;46.92;;;13.60;99.90;;;;;;4974140;28;20046;-70
2024/03/02 13:25:06;;;;;;;48.15;45.35;;;13.70;99.90;;;;;;4968132;28;20491;-71